createdAt,value
2022-08-26T11:05:16.261Z,0
2022-08-26T11:10:22.706Z,0
2022-08-26T11:35:55.033Z,19.5
2022-08-26T11:41:01.493Z,19.5
2022-08-26T11:46:07.941Z,19.5
2022-08-26T11:51:14.414Z,19.5
2022-08-26T11:56:20.851Z,19.5
2022-08-26T12:01:27.331Z,19.5
2022-08-26T12:06:33.774Z,19.5
2022-08-26T12:11:40.253Z,19.5
2022-08-26T12:16:46.695Z,19.5
2022-08-26T12:21:53.173Z,20.5
2022-08-26T12:26:59.635Z,20.5
2022-08-26T12:32:06.084Z,21
2022-08-26T12:37:12.577Z,21.5
2022-08-26T12:42:19.011Z,22
2022-08-26T12:47:25.472Z,22.5
2022-08-26T12:52:31.921Z,23
2022-08-26T12:57:38.402Z,23
2022-08-26T13:02:44.858Z,23
2022-08-26T13:07:51.323Z,23.5
2022-08-26T13:12:57.929Z,23.5
2022-08-26T13:18:04.525Z,23.5
2022-08-26T13:23:11.131Z,23.5
2022-08-26T13:28:17.735Z,23.5
2022-08-26T13:33:24.340Z,23.5
2022-08-26T13:38:30.936Z,23.5
2022-08-26T13:43:37.521Z,23.5
2022-08-26T13:48:44.118Z,24
2022-08-26T13:53:50.748Z,24
2022-08-26T13:58:57.319Z,24
2022-08-26T14:04:03.953Z,24
2022-08-26T14:09:10.590Z,24
2022-08-26T14:14:17.160Z,24
2022-08-26T14:19:24.029Z,24
2022-08-26T14:24:30.839Z,24
2022-08-26T14:29:37.672Z,24
2022-08-26T14:34:44.558Z,24
2022-08-26T14:39:51.302Z,24
2022-08-26T14:44:58.137Z,24
2022-08-26T14:50:04.947Z,24
2022-08-26T14:55:11.773Z,24
2022-08-26T15:00:18.600Z,24
2022-08-26T15:05:25.412Z,24
2022-08-26T15:10:32.252Z,24
2022-08-26T15:15:39.093Z,24
2022-08-26T15:20:45.934Z,24
2022-08-26T15:25:53.371Z,24
2022-08-26T15:30:59.425Z,24
2022-08-26T15:36:05.852Z,24
2022-08-26T15:41:12.340Z,24
2022-08-26T15:46:18.811Z,24
2022-08-26T15:51:25.291Z,23.5
2022-08-26T15:56:31.738Z,23.5
2022-08-26T16:01:38.200Z,23.5
2022-08-26T16:06:44.644Z,23.5
2022-08-26T16:11:51.105Z,23.5
2022-08-26T16:16:57.540Z,23.5
2022-08-26T16:22:03.987Z,23.5
2022-08-26T16:27:10.424Z,23.5
2022-08-26T16:32:16.877Z,23.5
2022-08-26T16:37:23.325Z,23.5
2022-08-26T16:42:29.804Z,23
2022-08-26T16:47:36.261Z,23
2022-08-26T16:52:42.732Z,23
2022-08-26T16:57:49.170Z,23
2022-08-26T17:02:55.631Z,23
2022-08-26T17:08:02.091Z,23
2022-08-26T17:13:08.589Z,23
2022-08-26T17:18:15.045Z,23
2022-08-26T17:23:21.527Z,23
2022-08-26T17:28:27.966Z,23
2022-08-26T17:33:34.457Z,23
2022-08-26T17:38:41.049Z,23
2022-08-26T17:43:47.667Z,23
2022-08-26T17:48:54.209Z,23
2022-08-26T17:54:00.855Z,22.5
2022-08-26T17:59:07.449Z,22.5
2022-08-26T18:04:14.093Z,22.5
2022-08-26T18:09:20.662Z,22.5
2022-08-26T18:14:27.263Z,22.5
2022-08-26T18:19:33.907Z,22.5
2022-08-26T18:24:40.492Z,22.5
2022-08-26T18:29:47.080Z,22.5
2022-08-26T18:34:53.664Z,22.5
2022-08-26T18:40:00.281Z,22.5
2022-08-26T18:45:07.144Z,22.5
2022-08-26T18:50:14.020Z,22
2022-08-26T18:55:20.898Z,22
2022-08-26T19:00:27.786Z,22
2022-08-26T19:05:34.669Z,22
2022-08-26T19:10:41.541Z,22
2022-08-26T19:15:48.449Z,22
2022-08-26T19:20:55.322Z,22
2022-08-26T19:26:02.191Z,22
2022-08-26T19:31:09.093Z,22
2022-08-26T19:36:15.961Z,21.5
2022-08-26T19:41:22.847Z,22
2022-08-26T19:46:29.731Z,22
2022-08-26T19:51:37.253Z,21.5
2022-08-26T19:56:43.330Z,21.5
2022-08-26T20:01:49.865Z,22
2022-08-26T20:06:56.344Z,21.5
2022-08-26T20:12:02.836Z,21.5
2022-08-26T20:17:09.364Z,21.5
2022-08-26T20:22:15.902Z,21.5
2022-08-26T20:27:22.367Z,21.5
2022-08-26T20:32:28.882Z,21.5
2022-08-26T20:37:35.396Z,21.5
2022-08-26T20:42:41.923Z,21
2022-08-26T20:47:48.419Z,21
2022-08-26T20:52:54.923Z,21
2022-08-26T20:58:01.424Z,21
2022-08-26T21:03:07.943Z,21
2022-08-26T21:08:14.444Z,21
2022-08-26T21:13:20.951Z,21
2022-08-26T21:18:27.475Z,21
2022-08-26T21:23:33.965Z,21
2022-08-26T21:28:40.475Z,21
2022-08-26T21:33:47.003Z,21
2022-08-26T21:38:53.475Z,21
2022-08-26T21:43:59.961Z,20.5
2022-08-26T21:49:06.485Z,21
2022-08-26T21:54:13.007Z,21
2022-08-26T21:59:19.524Z,21
2022-08-26T22:04:26.165Z,20.5
2022-08-26T22:09:32.841Z,21
2022-08-26T22:14:39.543Z,20.5
2022-08-26T22:19:46.205Z,20.5
2022-08-26T22:24:52.874Z,20.5
2022-08-26T22:29:59.524Z,20.5
2022-08-26T22:35:06.226Z,20.5
2022-08-26T22:40:12.851Z,20.5
2022-08-26T22:45:19.518Z,20.5
2022-08-26T22:50:26.149Z,20.5
2022-08-26T22:55:32.796Z,20.5
2022-08-26T23:00:39.450Z,20.5
2022-08-26T23:05:46.087Z,20.5
2022-08-26T23:10:53.012Z,20.5
2022-08-26T23:15:59.910Z,20
2022-08-26T23:21:06.807Z,20.5
2022-08-26T23:26:13.702Z,20.5
2022-08-26T23:31:20.609Z,20.5
2022-08-26T23:36:27.484Z,20.5
2022-08-26T23:41:34.376Z,20.5
2022-08-26T23:46:41.255Z,20.5
2022-08-26T23:51:48.156Z,20.5
2022-08-26T23:56:55.012Z,20.5
